sensor_id;sensor_type;location;lat;lon;timestamp;temperature;humidity
20483;DHT22;10400;53.198;6.592;2022-08-19T00:00:12;17.10;99.90
20483;DHT22;10400;53.198;6.592;2022-08-19T00:02:39;17.10;99.90
20483;DHT22;10400;53.198;6.592;2022-08-19T00:05:06;17.00;99.90
20483;DHT22;10400;53.198;6.592;2022-08-19T00:07:31;17.00;99.90
20483;DHT22;10400;53.198;6.592;2022-08-19T00:09:57;17.10;99.90
20483;DHT22;10400;53.198;6.592;2022-08-19T00:12:23;17.00;99.90
20483;DHT22;10400;53.198;6.592;2022-08-19T00:14:48;17.00;99.90
20483;DHT22;10400;53.198;6.592;2022-08-19T00:17:14;17.00;99.90
20483;DHT22;10400;53.198;6.592;2022-08-19T00:19:40;17.00;99.90
20483;DHT22;10400;53.198;6.592;2022-08-19T00:22:06;17.00;99.90
20483;DHT22;10400;53.198;6.592;2022-08-19T00:24:34;16.90;99.90
20483;DHT22;10400;53.198;6.592;2022-08-19T00:27:00;16.90;99.90
20483;DHT22;10400;53.198;6.592;2022-08-19T00:29:27;16.90;99.90
20483;DHT22;10400;53.198;6.592;2022-08-19T00:31:53;16.90;99.90
20483;DHT22;10400;53.198;6.592;2022-08-19T00:34:21;16.90;99.90
20483;DHT22;10400;53.198;6.592;2022-08-19T00:36:47;16.90;99.90
20483;DHT22;10400;53.198;6.592;2022-08-19T00:39:15;16.90;99.90
20483;DHT22;10400;53.198;6.592;2022-08-19T00:41:42;16.80;99.90
20483;DHT22;10400;53.198;6.592;2022-08-19T00:44:16;16.80;99.90
20483;DHT22;10400;53.198;6.592;2022-08-19T00:46:44;16.70;99.90
20483;DHT22;10400;53.198;6.592;2022-08-19T00:49:27;16.80;99.90
20483;DHT22;10400;53.198;6.592;2022-08-19T00:52:07;16.70;99.90
20483;DHT22;10400;53.198;6.592;2022-08-19T00:54:35;16.70;99.90
20483;DHT22;10400;53.198;6.592;2022-08-19T00:57:05;16.70;99.90
20483;DHT22;10400;53.198;6.592;2022-08-19T00:59:31;16.70;99.90
20483;DHT22;10400;53.198;6.592;2022-08-19T01:01:58;16.70;99.90
20483;DHT22;10400;53.198;6.592;2022-08-19T01:04:23;16.60;99.90
20483;DHT22;10400;53.198;6.592;2022-08-19T01:06:49;16.70;99.90
20483;DHT22;10400;53.198;6.592;2022-08-19T01:09:15;16.60;99.90
20483;DHT22;10400;53.198;6.592;2022-08-19T01:11:43;16.70;99.90
20483;DHT22;10400;53.198;6.592;2022-08-19T01:14:10;16.60;99.90
20483;DHT22;10400;53.198;6.592;2022-08-19T01:16:37;16.60;99.90
20483;DHT22;10400;53.198;6.592;2022-08-19T01:19:18;16.50;99.90
20483;DHT22;10400;53.198;6.592;2022-08-19T01:22:01;16.50;99.90
20483;DHT22;10400;53.198;6.592;2022-08-19T01:24:28;16.50;99.90
20483;DHT22;10400;53.198;6.592;2022-08-19T01:26:53;16.50;99.90
20483;DHT22;10400;53.198;6.592;2022-08-19T01:29:20;16.40;99.90
20483;DHT22;10400;53.198;6.592;2022-08-19T01:31:45;16.50;99.90
20483;DHT22;10400;53.198;6.592;2022-08-19T01:34:11;16.40;99.90
20483;DHT22;10400;53.198;6.592;2022-08-19T01:36:42;16.50;99.90
20483;DHT22;10400;53.198;6.592;2022-08-19T01:39:15;16.40;99.90
20483;DHT22;10400;53.198;6.592;2022-08-19T01:41:41;16.40;99.90
20483;DHT22;10400;53.198;6.592;2022-08-19T01:44:08;16.40;99.90
20483;DHT22;10400;53.198;6.592;2022-08-19T01:46:34;16.40;99.90
20483;DHT22;10400;53.198;6.592;2022-08-19T01:49:01;16.50;99.90
20483;DHT22;10400;53.198;6.592;2022-08-19T01:51:27;16.40;99.90
20483;DHT22;10400;53.198;6.592;2022-08-19T01:53:53;16.40;99.90
20483;DHT22;10400;53.198;6.592;2022-08-19T01:56:19;16.40;99.90
20483;DHT22;10400;53.198;6.592;2022-08-19T01:58:55;16.40;99.90
20483;DHT22;10400;53.198;6.592;2022-08-19T02:01:21;16.40;99.90
20483;DHT22;10400;53.198;6.592;2022-08-19T02:03:47;16.40;99.90
20483;DHT22;10400;53.198;6.592;2022-08-19T02:06:13;16.30;99.90
20483;DHT22;10400;53.198;6.592;2022-08-19T02:08:39;16.30;99.90
20483;DHT22;10400;53.198;6.592;2022-08-19T02:11:06;16.40;99.90
20483;DHT22;10400;53.198;6.592;2022-08-19T02:13:33;16.40;99.90
20483;DHT22;10400;53.198;6.592;2022-08-19T02:15:59;16.30;99.90
20483;DHT22;10400;53.198;6.592;2022-08-19T02:18:25;16.30;99.90
20483;DHT22;10400;53.198;6.592;2022-08-19T02:20:52;16.20;99.90
20483;DHT22;10400;53.198;6.592;2022-08-19T02:23:17;16.30;99.90
20483;DHT22;10400;53.198;6.592;2022-08-19T02:25:46;16.30;99.90
20483;DHT22;10400;53.198;6.592;2022-08-19T02:28:12;16.30;99.90
20483;DHT22;10400;53.198;6.592;2022-08-19T02:30:40;16.30;99.90
20483;DHT22;10400;53.198;6.592;2022-08-19T02:33:05;16.30;99.90
20483;DHT22;10400;53.198;6.592;2022-08-19T02:35:31;16.30;99.90
20483;DHT22;10400;53.198;6.592;2022-08-19T02:37:57;16.20;99.90
20483;DHT22;10400;53.198;6.592;2022-08-19T02:41:07;16.20;99.90
20483;DHT22;10400;53.198;6.592;2022-08-19T02:43:35;16.20;99.90
20483;DHT22;10400;53.198;6.592;2022-08-19T02:46:11;16.20;99.90
20483;DHT22;10400;53.198;6.592;2022-08-19T02:48:37;16.20;99.90
20483;DHT22;10400;53.198;6.592;2022-08-19T02:51:03;16.20;99.90
20483;DHT22;10400;53.198;6.592;2022-08-19T02:53:29;16.20;99.90
20483;DHT22;10400;53.198;6.592;2022-08-19T02:55:54;16.20;99.90
20483;DHT22;10400;53.198;6.592;2022-08-19T02:58:21;16.20;99.90
20483;DHT22;10400;53.198;6.592;2022-08-19T03:00:55;16.10;99.90
20483;DHT22;10400;53.198;6.592;2022-08-19T03:03:21;16.20;99.90
20483;DHT22;10400;53.198;6.592;2022-08-19T03:05:47;16.10;99.90
20483;DHT22;10400;53.198;6.592;2022-08-19T03:08:13;16.10;99.90
20483;DHT22;10400;53.198;6.592;2022-08-19T03:10:44;16.10;99.90
20483;DHT22;10400;53.198;6.592;2022-08-19T03:13:15;16.10;99.90
20483;DHT22;10400;53.198;6.592;2022-08-19T03:15:46;16.10;99.90
20483;DHT22;10400;53.198;6.592;2022-08-19T03:18:12;16.10;99.90
20483;DHT22;10400;53.198;6.592;2022-08-19T03:20:47;16.10;99.90
20483;DHT22;10400;53.198;6.592;2022-08-19T03:23:14;16.10;99.90
20483;DHT22;10400;53.198;6.592;2022-08-19T03:25:40;16.10;99.90
20483;DHT22;10400;53.198;6.592;2022-08-19T03:28:09;16.10;99.90
20483;DHT22;10400;53.198;6.592;2022-08-19T03:30:35;16.10;99.90
20483;DHT22;10400;53.198;6.592;2022-08-19T03:33:01;16.00;99.90
20483;DHT22;10400;53.198;6.592;2022-08-19T03:35:27;16.00;99.90
20483;DHT22;10400;53.198;6.592;2022-08-19T03:37:53;16.00;99.90
20483;DHT22;10400;53.198;6.592;2022-08-19T03:40:19;16.00;99.90
20483;DHT22;10400;53.198;6.592;2022-08-19T03:42:44;16.00;99.90
20483;DHT22;10400;53.198;6.592;2022-08-19T03:45:11;16.00;99.90
20483;DHT22;10400;53.198;6.592;2022-08-19T03:47:37;15.90;99.90
20483;DHT22;10400;53.198;6.592;2022-08-19T03:50:03;15.90;99.90
20483;DHT22;10400;53.198;6.592;2022-08-19T03:52:29;15.90;99.90
20483;DHT22;10400;53.198;6.592;2022-08-19T03:54:55;15.90;99.90
20483;DHT22;10400;53.198;6.592;2022-08-19T03:57:21;15.90;99.90
20483;DHT22;10400;53.198;6.592;2022-08-19T03:59:46;15.90;99.90
20483;DHT22;10400;53.198;6.592;2022-08-19T04:02:13;15.90;99.90
20483;DHT22;10400;53.198;6.592;2022-08-19T04:04:40;15.90;99.90
20483;DHT22;10400;53.198;6.592;2022-08-19T04:07:06;15.90;99.90
20483;DHT22;10400;53.198;6.592;2022-08-19T04:09:34;15.90;99.90
20483;DHT22;10400;53.198;6.592;2022-08-19T04:11:59;15.80;99.90
20483;DHT22;10400;53.198;6.592;2022-08-19T04:14:27;15.80;99.90
20483;DHT22;10400;53.198;6.592;2022-08-19T04:16:56;15.80;99.90
20483;DHT22;10400;53.198;6.592;2022-08-19T04:19:22;15.80;99.90
20483;DHT22;10400;53.198;6.592;2022-08-19T04:21:51;15.80;99.90
20483;DHT22;10400;53.198;6.592;2022-08-19T04:24:18;15.80;99.90
20483;DHT22;10400;53.198;6.592;2022-08-19T04:26:44;15.80;99.90
20483;DHT22;10400;53.198;6.592;2022-08-19T04:29:19;15.80;99.90
20483;DHT22;10400;53.198;6.592;2022-08-19T04:31:47;15.70;99.90
20483;DHT22;10400;53.198;6.592;2022-08-19T04:34:15;15.70;99.90
20483;DHT22;10400;53.198;6.592;2022-08-19T04:36:44;15.70;99.90
20483;DHT22;10400;53.198;6.592;2022-08-19T04:39:13;15.70;99.90
20483;DHT22;10400;53.198;6.592;2022-08-19T04:41:39;15.70;99.90
20483;DHT22;10400;53.198;6.592;2022-08-19T04:44:23;15.70;99.90
20483;DHT22;10400;53.198;6.592;2022-08-19T04:46:50;15.70;99.90
20483;DHT22;10400;53.198;6.592;2022-08-19T04:49:17;15.70;99.90
20483;DHT22;10400;53.198;6.592;2022-08-19T04:51:45;15.70;99.90
20483;DHT22;10400;53.198;6.592;2022-08-19T04:54:11;15.60;99.90
20483;DHT22;10400;53.198;6.592;2022-08-19T04:56:39;15.60;99.90
20483;DHT22;10400;53.198;6.592;2022-08-19T04:59:05;15.70;99.90
20483;DHT22;10400;53.198;6.592;2022-08-19T05:01:32;15.70;99.90
20483;DHT22;10400;53.198;6.592;2022-08-19T05:04:00;15.70;99.90
20483;DHT22;10400;53.198;6.592;2022-08-19T05:06:26;15.80;99.90
20483;DHT22;10400;53.198;6.592;2022-08-19T05:08:53;15.90;99.90
20483;DHT22;10400;53.198;6.592;2022-08-19T05:11:25;15.90;99.90
20483;DHT22;10400;53.198;6.592;2022-08-19T05:13:51;16.00;99.90
20483;DHT22;10400;53.198;6.592;2022-08-19T05:16:19;16.00;99.90
20483;DHT22;10400;53.198;6.592;2022-08-19T05:18:46;16.10;99.90
20483;DHT22;10400;53.198;6.592;2022-08-19T05:21:31;16.10;99.90
20483;DHT22;10400;53.198;6.592;2022-08-19T05:24:19;16.20;99.90
20483;DHT22;10400;53.198;6.592;2022-08-19T05:26:49;16.30;99.90
20483;DHT22;10400;53.198;6.592;2022-08-19T05:29:19;16.30;99.90
20483;DHT22;10400;53.198;6.592;2022-08-19T05:31:47;16.30;99.90
20483;DHT22;10400;53.198;6.592;2022-08-19T05:34:14;16.40;99.90
20483;DHT22;10400;53.198;6.592;2022-08-19T05:36:42;16.50;99.90
20483;DHT22;10400;53.198;6.592;2022-08-19T05:39:11;16.60;99.90
20483;DHT22;10400;53.198;6.592;2022-08-19T05:41:42;16.60;99.90
20483;DHT22;10400;53.198;6.592;2022-08-19T05:44:08;16.70;99.90
20483;DHT22;10400;53.198;6.592;2022-08-19T05:46:35;16.80;99.90
20483;DHT22;10400;53.198;6.592;2022-08-19T05:49:06;16.90;99.90
20483;DHT22;10400;53.198;6.592;2022-08-19T05:51:34;17.00;99.90
20483;DHT22;10400;53.198;6.592;2022-08-19T05:54:01;17.10;99.90
20483;DHT22;10400;53.198;6.592;2022-08-19T05:56:27;17.20;99.90
20483;DHT22;10400;53.198;6.592;2022-08-19T05:58:53;17.30;99.90
20483;DHT22;10400;53.198;6.592;2022-08-19T06:01:20;17.30;99.90
20483;DHT22;10400;53.198;6.592;2022-08-19T06:03:46;17.40;99.90
20483;DHT22;10400;53.198;6.592;2022-08-19T06:06:16;17.50;99.90
20483;DHT22;10400;53.198;6.592;2022-08-19T06:08:42;17.50;99.90
20483;DHT22;10400;53.198;6.592;2022-08-19T06:11:33;17.60;99.90
20483;DHT22;10400;53.198;6.592;2022-08-19T06:14:05;17.60;99.90
20483;DHT22;10400;53.198;6.592;2022-08-19T06:16:34;17.70;99.90
20483;DHT22;10400;53.198;6.592;2022-08-19T06:19:05;17.80;99.90
20483;DHT22;10400;53.198;6.592;2022-08-19T06:21:33;17.90;99.90
20483;DHT22;10400;53.198;6.592;2022-08-19T06:23:59;18.10;99.90
20483;DHT22;10400;53.198;6.592;2022-08-19T06:26:26;18.10;99.90
20483;DHT22;10400;53.198;6.592;2022-08-19T06:28:52;18.20;99.90
20483;DHT22;10400;53.198;6.592;2022-08-19T06:31:25;18.30;99.90
20483;DHT22;10400;53.198;6.592;2022-08-19T06:33:51;18.50;99.90
20483;DHT22;10400;53.198;6.592;2022-08-19T06:36:28;18.50;99.90
20483;DHT22;10400;53.198;6.592;2022-08-19T06:38:58;18.60;99.90
20483;DHT22;10400;53.198;6.592;2022-08-19T06:41:25;18.60;99.90
20483;DHT22;10400;53.198;6.592;2022-08-19T06:43:51;18.70;99.90
20483;DHT22;10400;53.198;6.592;2022-08-19T06:46:18;18.80;99.90
20483;DHT22;10400;53.198;6.592;2022-08-19T06:48:45;18.80;99.90
20483;DHT22;10400;53.198;6.592;2022-08-19T06:51:13;19.00;99.90
20483;DHT22;10400;53.198;6.592;2022-08-19T06:53:41;19.00;99.90
20483;DHT22;10400;53.198;6.592;2022-08-19T06:56:13;19.00;99.90
20483;DHT22;10400;53.198;6.592;2022-08-19T06:58:39;19.00;99.90
20483;DHT22;10400;53.198;6.592;2022-08-19T07:01:05;19.20;99.90
20483;DHT22;10400;53.198;6.592;2022-08-19T07:03:33;19.20;99.90
20483;DHT22;10400;53.198;6.592;2022-08-19T07:06:13;19.40;99.90
20483;DHT22;10400;53.198;6.592;2022-08-19T07:08:41;19.50;99.90
20483;DHT22;10400;53.198;6.592;2022-08-19T07:11:09;19.60;99.90
20483;DHT22;10400;53.198;6.592;2022-08-19T07:13:36;19.70;99.90
20483;DHT22;10400;53.198;6.592;2022-08-19T07:16:07;19.80;99.90
20483;DHT22;10400;53.198;6.592;2022-08-19T07:18:34;19.80;99.90
20483;DHT22;10400;53.198;6.592;2022-08-19T07:21:10;19.90;99.90
20483;DHT22;10400;53.198;6.592;2022-08-19T07:23:37;20.10;99.90
20483;DHT22;10400;53.198;6.592;2022-08-19T07:26:18;20.20;99.90
20483;DHT22;10400;53.198;6.592;2022-08-19T07:28:45;20.30;99.90
20483;DHT22;10400;53.198;6.592;2022-08-19T07:31:13;20.30;99.90
20483;DHT22;10400;53.198;6.592;2022-08-19T07:33:40;20.40;99.90
20483;DHT22;10400;53.198;6.592;2022-08-19T07:36:09;20.60;99.90
20483;DHT22;10400;53.198;6.592;2022-08-19T07:38:38;20.70;99.90
20483;DHT22;10400;53.198;6.592;2022-08-19T07:41:05;20.80;99.90
20483;DHT22;10400;53.198;6.592;2022-08-19T07:43:30;20.90;99.90
20483;DHT22;10400;53.198;6.592;2022-08-19T07:45:57;21.00;99.90
20483;DHT22;10400;53.198;6.592;2022-08-19T07:48:24;20.90;99.90
20483;DHT22;10400;53.198;6.592;2022-08-19T07:50:54;21.00;99.90
20483;DHT22;10400;53.198;6.592;2022-08-19T07:53:21;21.20;99.90
20483;DHT22;10400;53.198;6.592;2022-08-19T07:55:47;21.20;99.90
20483;DHT22;10400;53.198;6.592;2022-08-19T07:58:15;21.40;99.90
20483;DHT22;10400;53.198;6.592;2022-08-19T08:00:43;21.50;99.90
20483;DHT22;10400;53.198;6.592;2022-08-19T08:03:09;21.50;99.90
20483;DHT22;10400;53.198;6.592;2022-08-19T08:05:35;21.60;99.90
20483;DHT22;10400;53.198;6.592;2022-08-19T08:08:19;21.70;99.90
20483;DHT22;10400;53.198;6.592;2022-08-19T08:11:05;21.90;99.90
20483;DHT22;10400;53.198;6.592;2022-08-19T08:13:31;22.00;99.90
20483;DHT22;10400;53.198;6.592;2022-08-19T08:16:01;22.10;99.90
20483;DHT22;10400;53.198;6.592;2022-08-19T08:18:27;22.20;99.90
20483;DHT22;10400;53.198;6.592;2022-08-19T08:20:53;22.20;99.90
20483;DHT22;10400;53.198;6.592;2022-08-19T08:23:19;22.20;99.90
20483;DHT22;10400;53.198;6.592;2022-08-19T08:25:48;22.30;99.90
20483;DHT22;10400;53.198;6.592;2022-08-19T08:28:15;22.50;99.90
20483;DHT22;10400;53.198;6.592;2022-08-19T08:30:41;22.60;99.90
20483;DHT22;10400;53.198;6.592;2022-08-19T08:33:08;22.70;99.90
20483;DHT22;10400;53.198;6.592;2022-08-19T08:35:33;22.80;99.90
20483;DHT22;10400;53.198;6.592;2022-08-19T08:37:59;22.80;99.90
20483;DHT22;10400;53.198;6.592;2022-08-19T08:40:29;22.90;99.90
20483;DHT22;10400;53.198;6.592;2022-08-19T08:43:06;23.00;99.90
20483;DHT22;10400;53.198;6.592;2022-08-19T08:45:36;23.00;99.90
20483;DHT22;10400;53.198;6.592;2022-08-19T08:48:18;23.20;99.90
20483;DHT22;10400;53.198;6.592;2022-08-19T08:50:47;23.20;99.90
20483;DHT22;10400;53.198;6.592;2022-08-19T08:53:17;23.30;99.90
20483;DHT22;10400;53.198;6.592;2022-08-19T08:55:43;23.30;99.90
20483;DHT22;10400;53.198;6.592;2022-08-19T08:58:15;23.20;99.90
20483;DHT22;10400;53.198;6.592;2022-08-19T09:00:46;23.30;99.90
20483;DHT22;10400;53.198;6.592;2022-08-19T09:03:30;23.40;99.90
20483;DHT22;10400;53.198;6.592;2022-08-19T09:14:32;23.70;99.90
20483;DHT22;10400;53.198;6.592;2022-08-19T09:16:59;23.70;99.90
20483;DHT22;10400;53.198;6.592;2022-08-19T09:19:29;23.90;99.90
20483;DHT22;10400;53.198;6.592;2022-08-19T09:21:55;24.10;99.90
20483;DHT22;10400;53.198;6.592;2022-08-19T09:24:21;24.30;99.90
20483;DHT22;10400;53.198;6.592;2022-08-19T09:26:46;24.20;99.90
20483;DHT22;10400;53.198;6.592;2022-08-19T09:29:12;24.30;99.90
20483;DHT22;10400;53.198;6.592;2022-08-19T09:31:38;24.10;99.90
20483;DHT22;10400;53.198;6.592;2022-08-19T09:34:04;24.10;99.90
20483;DHT22;10400;53.198;6.592;2022-08-19T09:36:31;24.30;99.90
20483;DHT22;10400;53.198;6.592;2022-08-19T09:39:03;24.40;99.90
20483;DHT22;10400;53.198;6.592;2022-08-19T09:41:29;24.30;99.90
20483;DHT22;10400;53.198;6.592;2022-08-19T09:43:56;24.30;99.90
20483;DHT22;10400;53.198;6.592;2022-08-19T09:46:25;24.40;99.90
20483;DHT22;10400;53.198;6.592;2022-08-19T09:48:51;24.60;99.90
20483;DHT22;10400;53.198;6.592;2022-08-19T09:51:23;24.70;99.90
20483;DHT22;10400;53.198;6.592;2022-08-19T09:53:50;24.90;99.90
20483;DHT22;10400;53.198;6.592;2022-08-19T09:56:17;24.90;99.90
20483;DHT22;10400;53.198;6.592;2022-08-19T09:58:43;24.90;99.90
20483;DHT22;10400;53.198;6.592;2022-08-19T10:01:09;25.10;99.90
20483;DHT22;10400;53.198;6.592;2022-08-19T10:03:40;24.90;99.90
20483;DHT22;10400;53.198;6.592;2022-08-19T10:06:05;24.70;99.90
20483;DHT22;10400;53.198;6.592;2022-08-19T10:08:34;24.80;99.90
20483;DHT22;10400;53.198;6.592;2022-08-19T10:11:01;25.00;99.90
20483;DHT22;10400;53.198;6.592;2022-08-19T10:13:28;25.20;99.90
20483;DHT22;10400;53.198;6.592;2022-08-19T10:16:08;25.60;99.90
20483;DHT22;10400;53.198;6.592;2022-08-19T10:18:35;25.60;99.90
20483;DHT22;10400;53.198;6.592;2022-08-19T10:21:07;25.50;99.90
20483;DHT22;10400;53.198;6.592;2022-08-19T10:23:37;25.70;99.90
20483;DHT22;10400;53.198;6.592;2022-08-19T10:26:05;25.80;99.90
20483;DHT22;10400;53.198;6.592;2022-08-19T10:28:33;25.80;99.90
20483;DHT22;10400;53.198;6.592;2022-08-19T10:31:21;25.70;99.90
20483;DHT22;10400;53.198;6.592;2022-08-19T10:33:48;25.90;99.90
20483;DHT22;10400;53.198;6.592;2022-08-19T10:36:20;26.00;99.90
20483;DHT22;10400;53.198;6.592;2022-08-19T10:38:50;26.20;99.90
20483;DHT22;10400;53.198;6.592;2022-08-19T10:41:21;26.40;99.90
20483;DHT22;10400;53.198;6.592;2022-08-19T10:43:51;26.60;99.90
20483;DHT22;10400;53.198;6.592;2022-08-19T10:46:17;26.60;99.90
20483;DHT22;10400;53.198;6.592;2022-08-19T10:48:44;26.60;99.90
20483;DHT22;10400;53.198;6.592;2022-08-19T10:51:10;26.40;99.90
20483;DHT22;10400;53.198;6.592;2022-08-19T10:53:55;26.20;99.90
20483;DHT22;10400;53.198;6.592;2022-08-19T10:56:21;26.30;99.90
20483;DHT22;10400;53.198;6.592;2022-08-19T10:59:05;26.40;99.90
20483;DHT22;10400;53.198;6.592;2022-08-19T11:01:32;26.50;99.90
20483;DHT22;10400;53.198;6.592;2022-08-19T11:04:00;26.60;99.90
20483;DHT22;10400;53.198;6.592;2022-08-19T11:06:26;26.60;99.90
20483;DHT22;10400;53.198;6.592;2022-08-19T11:08:53;26.70;99.90
20483;DHT22;10400;53.198;6.592;2022-08-19T11:11:20;26.60;99.90
20483;DHT22;10400;53.198;6.592;2022-08-19T11:13:47;26.60;99.90
20483;DHT22;10400;53.198;6.592;2022-08-19T11:16:16;26.30;99.90
20483;DHT22;10400;53.198;6.592;2022-08-19T11:18:48;26.00;99.90
20483;DHT22;10400;53.198;6.592;2022-08-19T11:21:31;26.10;99.90
20483;DHT22;10400;53.198;6.592;2022-08-19T11:24:00;26.10;99.90
20483;DHT22;10400;53.198;6.592;2022-08-19T11:26:28;26.10;99.90
20483;DHT22;10400;53.198;6.592;2022-08-19T11:28:53;26.20;99.90
20483;DHT22;10400;53.198;6.592;2022-08-19T11:31:22;26.30;99.90
20483;DHT22;10400;53.198;6.592;2022-08-19T11:33:48;26.60;99.90
20483;DHT22;10400;53.198;6.592;2022-08-19T11:36:17;26.90;99.90
20483;DHT22;10400;53.198;6.592;2022-08-19T11:38:43;27.00;99.90
20483;DHT22;10400;53.198;6.592;2022-08-19T11:41:09;27.30;99.90
20483;DHT22;10400;53.198;6.592;2022-08-19T11:43:36;27.30;99.90
20483;DHT22;10400;53.198;6.592;2022-08-19T11:46:09;26.80;99.90
20483;DHT22;10400;53.198;6.592;2022-08-19T11:48:36;26.50;99.90
20483;DHT22;10400;53.198;6.592;2022-08-19T11:51:05;26.30;99.90
20483;DHT22;10400;53.198;6.592;2022-08-19T11:53:35;26.20;99.90
20483;DHT22;10400;53.198;6.592;2022-08-19T11:56:02;26.10;99.90
20483;DHT22;10400;53.198;6.592;2022-08-19T11:58:28;26.10;99.90
20483;DHT22;10400;53.198;6.592;2022-08-19T12:00:54;26.30;99.90
20483;DHT22;10400;53.198;6.592;2022-08-19T12:03:20;26.30;99.90
20483;DHT22;10400;53.198;6.592;2022-08-19T12:05:46;26.40;99.90
20483;DHT22;10400;53.198;6.592;2022-08-19T12:08:13;26.40;99.90
20483;DHT22;10400;53.198;6.592;2022-08-19T12:10:39;26.40;99.90
20483;DHT22;10400;53.198;6.592;2022-08-19T12:13:08;26.40;99.90
20483;DHT22;10400;53.198;6.592;2022-08-19T12:15:38;26.40;99.90
20483;DHT22;10400;53.198;6.592;2022-08-19T12:18:06;26.40;99.90
20483;DHT22;10400;53.198;6.592;2022-08-19T12:20:38;26.60;99.90
20483;DHT22;10400;53.198;6.592;2022-08-19T12:23:07;26.60;99.90
20483;DHT22;10400;53.198;6.592;2022-08-19T12:25:33;26.50;99.90
20483;DHT22;10400;53.198;6.592;2022-08-19T12:27:59;26.50;99.90
20483;DHT22;10400;53.198;6.592;2022-08-19T12:30:26;26.60;99.90
20483;DHT22;10400;53.198;6.592;2022-08-19T12:32:51;26.70;99.90
20483;DHT22;10400;53.198;6.592;2022-08-19T12:35:18;26.80;99.90
20483;DHT22;10400;53.198;6.592;2022-08-19T12:37:46;26.70;99.90
20483;DHT22;10400;53.198;6.592;2022-08-19T12:40:12;26.80;99.90
20483;DHT22;10400;53.198;6.592;2022-08-19T12:42:39;26.70;99.90
20483;DHT22;10400;53.198;6.592;2022-08-19T12:45:12;26.60;99.90
20483;DHT22;10400;53.198;6.592;2022-08-19T12:47:39;26.50;99.90
20483;DHT22;10400;53.198;6.592;2022-08-19T12:50:06;26.50;99.90
20483;DHT22;10400;53.198;6.592;2022-08-19T12:52:34;26.90;99.90
20483;DHT22;10400;53.198;6.592;2022-08-19T12:55:04;26.80;99.90
20483;DHT22;10400;53.198;6.592;2022-08-19T12:57:30;26.90;99.90
20483;DHT22;10400;53.198;6.592;2022-08-19T12:59:59;26.90;99.90
20483;DHT22;10400;53.198;6.592;2022-08-19T13:02:25;26.70;99.90
20483;DHT22;10400;53.198;6.592;2022-08-19T13:04:51;26.90;99.90
20483;DHT22;10400;53.198;6.592;2022-08-19T13:07:17;27.00;99.90
20483;DHT22;10400;53.198;6.592;2022-08-19T13:09:43;26.90;99.90
20483;DHT22;10400;53.198;6.592;2022-08-19T13:12:08;26.80;99.90
20483;DHT22;10400;53.198;6.592;2022-08-19T13:14:39;26.60;99.90
20483;DHT22;10400;53.198;6.592;2022-08-19T13:17:06;26.50;99.90
20483;DHT22;10400;53.198;6.592;2022-08-19T13:19:32;26.50;99.90
20483;DHT22;10400;53.198;6.592;2022-08-19T13:21:57;26.60;99.90
20483;DHT22;10400;53.198;6.592;2022-08-19T13:24:24;26.60;99.90
20483;DHT22;10400;53.198;6.592;2022-08-19T13:26:51;26.70;99.90
20483;DHT22;10400;53.198;6.592;2022-08-19T13:29:16;27.10;99.90
20483;DHT22;10400;53.198;6.592;2022-08-19T13:32:00;27.20;99.90
20483;DHT22;10400;53.198;6.592;2022-08-19T13:34:45;26.90;99.90
20483;DHT22;10400;53.198;6.592;2022-08-19T13:37:12;26.70;99.90
20483;DHT22;10400;53.198;6.592;2022-08-19T13:39:38;26.60;99.90
20483;DHT22;10400;53.198;6.592;2022-08-19T13:42:04;26.40;99.90
20483;DHT22;10400;53.198;6.592;2022-08-19T13:44:31;26.30;99.90
20483;DHT22;10400;53.198;6.592;2022-08-19T13:47:01;26.20;99.90
20483;DHT22;10400;53.198;6.592;2022-08-19T13:49:30;25.90;99.90
20483;DHT22;10400;53.198;6.592;2022-08-19T13:51:56;25.80;99.90
20483;DHT22;10400;53.198;6.592;2022-08-19T13:54:22;25.80;99.90
20483;DHT22;10400;53.198;6.592;2022-08-19T13:56:48;25.60;99.90
20483;DHT22;10400;53.198;6.592;2022-08-19T13:59:14;25.60;99.90
20483;DHT22;10400;53.198;6.592;2022-08-19T14:01:40;25.50;99.90
20483;DHT22;10400;53.198;6.592;2022-08-19T14:04:06;25.60;99.90
20483;DHT22;10400;53.198;6.592;2022-08-19T14:06:33;25.30;99.90
20483;DHT22;10400;53.198;6.592;2022-08-19T14:08:59;25.30;99.90
20483;DHT22;10400;53.198;6.592;2022-08-19T14:11:25;25.20;99.90
20483;DHT22;10400;53.198;6.592;2022-08-19T14:13:51;25.20;99.90
20483;DHT22;10400;53.198;6.592;2022-08-19T14:16:17;25.10;99.90
20483;DHT22;10400;53.198;6.592;2022-08-19T14:18:43;25.00;99.90
20483;DHT22;10400;53.198;6.592;2022-08-19T14:21:21;24.90;99.90
20483;DHT22;10400;53.198;6.592;2022-08-19T14:23:49;25.10;99.90
20483;DHT22;10400;53.198;6.592;2022-08-19T14:26:17;25.00;99.90
20483;DHT22;10400;53.198;6.592;2022-08-19T14:28:44;24.90;99.90
20483;DHT22;10400;53.198;6.592;2022-08-19T14:31:14;24.90;99.90
20483;DHT22;10400;53.198;6.592;2022-08-19T14:33:43;24.80;99.90
20483;DHT22;10400;53.198;6.592;2022-08-19T14:36:09;24.80;99.90
20483;DHT22;10400;53.198;6.592;2022-08-19T14:38:35;24.90;99.90
20483;DHT22;10400;53.198;6.592;2022-08-19T14:41:18;24.90;99.90
20483;DHT22;10400;53.198;6.592;2022-08-19T14:43:46;24.90;99.90
20483;DHT22;10400;53.198;6.592;2022-08-19T14:46:16;25.10;99.90
20483;DHT22;10400;53.198;6.592;2022-08-19T14:48:43;25.20;99.90
20483;DHT22;10400;53.198;6.592;2022-08-19T14:51:09;25.20;99.90
20483;DHT22;10400;53.198;6.592;2022-08-19T14:53:35;25.30;99.90
20483;DHT22;10400;53.198;6.592;2022-08-19T14:56:01;25.40;99.90
20483;DHT22;10400;53.198;6.592;2022-08-19T14:58:32;25.50;99.90
20483;DHT22;10400;53.198;6.592;2022-08-19T15:00:58;25.40;99.90
20483;DHT22;10400;53.198;6.592;2022-08-19T15:03:24;25.50;99.90
20483;DHT22;10400;53.198;6.592;2022-08-19T15:05:51;25.50;99.90
20483;DHT22;10400;53.198;6.592;2022-08-19T15:08:17;25.50;99.90
20483;DHT22;10400;53.198;6.592;2022-08-19T15:10:42;25.60;99.90
20483;DHT22;10400;53.198;6.592;2022-08-19T15:13:08;26.00;99.90
20483;DHT22;10400;53.198;6.592;2022-08-19T15:15:35;26.10;99.90
20483;DHT22;10400;53.198;6.592;2022-08-19T15:18:01;26.30;99.90
20483;DHT22;10400;53.198;6.592;2022-08-19T15:20:28;26.40;99.90
20483;DHT22;10400;53.198;6.592;2022-08-19T15:22:54;26.20;99.90
20483;DHT22;10400;53.198;6.592;2022-08-19T15:25:20;26.10;99.90
20483;DHT22;10400;53.198;6.592;2022-08-19T15:27:46;26.00;99.90
20483;DHT22;10400;53.198;6.592;2022-08-19T15:30:18;26.10;99.90
20483;DHT22;10400;53.198;6.592;2022-08-19T15:32:44;25.90;99.90
20483;DHT22;10400;53.198;6.592;2022-08-19T15:35:10;25.80;99.90
20483;DHT22;10400;53.198;6.592;2022-08-19T15:37:35;25.60;99.90
20483;DHT22;10400;53.198;6.592;2022-08-19T15:40:01;25.60;99.90
20483;DHT22;10400;53.198;6.592;2022-08-19T15:42:27;25.70;99.90
20483;DHT22;10400;53.198;6.592;2022-08-19T15:44:53;25.70;99.90